Time;durP1;ratioP1;P1;durP2;ratioP2;P2;SDS_P1;SDS_P2;PMS_P1;PMS_P2;Temp;Humidity;BMP_temperature;BMP_pressure;BME280_temperature;BME280_humidity;BME280_pressure;Samples;Min_cycle;Max_cycle;Signal;HPM_P1;HPM_P2
2022/06/15 00:01:43;;;;;;;;;;;23.00;99.90;;;;;;5117431;28;19956;-69
2022/06/15 00:04:08;;;;;;;;;;;23.10;99.90;;;;;;5117699;28;19935;-69
2022/06/15 00:06:39;;;;;;;;;;;22.90;99.90;;;;;;5111040;28;20892;-68
2022/06/15 00:09:07;;;;;;;;;;;22.70;99.90;;;;;;5111586;28;20338;-69
2022/06/15 00:11:43;;;;;;;;;;;22.70;99.90;;;;;;5109276;28;19919;-69
2022/06/15 00:14:15;;;;;;;;;;;22.80;99.90;;;;;;5115948;28;19947;-68
2022/06/15 00:16:41;;;;;;;;;;;22.90;99.90;;;;;;5113326;28;20480;-68
2022/06/15 00:19:07;;;;;;;;;;;23.10;99.90;;;;;;5112054;28;19907;-68
2022/06/15 00:21:33;;;;;;;;;;;23.10;99.90;;;;;;5102898;28;20349;-68
2022/06/15 00:23:59;;;;;;;;;;;23.10;99.90;;;;;;5116103;28;19957;-68
2022/06/15 00:26:25;;;;;;;;;;;23.10;99.90;;;;;;5112969;28;19908;-68
2022/06/15 00:28:51;;;;;;;;;;;23.10;99.90;;;;;;5114892;28;20362;-65
2022/06/15 00:31:18;;;;;;;;;;;23.10;99.90;;;;;;5109300;28;19950;-69
2022/06/15 00:33:43;;;;;;;;;;;23.20;99.90;;;;;;5108599;28;20466;-69
2022/06/15 00:36:10;;;;;;;;;;;23.10;99.90;;;;;;5113415;28;19914;-69
2022/06/15 00:38:40;;;;;;;;;;;23.00;99.90;;;;;;5114731;28;19912;-67
2022/06/15 00:41:07;;;;;;;;;;;23.00;99.90;;;;;;5108905;28;19908;-68
2022/06/15 00:43:37;;;;;;;;;;;23.00;99.90;;;;;;5105040;28;20531;-68
2022/06/15 00:46:22;;;;;;;;;;;23.00;99.90;;;;;;5112281;28;19975;-68
2022/06/15 00:48:49;;;;;;;;;;;23.00;99.90;;;;;;5114672;28;20284;-68
2022/06/15 00:51:15;;;;;;;;;;;23.00;99.90;;;;;;5110644;28;19972;-67
2022/06/15 00:53:41;;;;;;;;;;;23.00;99.90;;;;;;5107473;28;19911;-68
2022/06/15 00:56:08;;;;;;;;;;;23.10;99.90;;;;;;5111685;28;19957;-67
2022/06/15 00:58:36;;;;;;;;;;;23.00;99.90;;;;;;5108570;28;19984;-72
2022/06/15 01:01:02;;;;;;;;;;;23.00;99.90;;;;;;5111282;28;19915;-67
2022/06/15 01:03:28;;;;;;;;;;;23.00;99.90;;;;;;5113581;28;19930;-68
2022/06/15 01:06:00;;;;;;;;;;;22.90;99.90;;;;;;5115819;28;19953;-67
2022/06/15 01:08:28;;;;;;;;;;;22.80;99.90;;;;;;5111069;28;20126;-68
2022/06/15 01:11:02;;;;;;;;;;;22.80;99.90;;;;;;5112190;27;19920;-67
2022/06/15 01:13:43;;;;;;;;;;;22.80;99.90;;;;;;5113951;28;19938;-68
2022/06/15 01:16:09;;;;;;;;;;;22.70;99.90;;;;;;5110269;28;19915;-67
2022/06/15 01:18:40;;;;;;;;;;;22.60;99.90;;;;;;5112101;28;20361;-67
2022/06/15 01:21:09;;;;;;;;;;;22.60;99.90;;;;;;5111719;28;20000;-67
2022/06/15 01:23:35;;;;;;;;;;;22.60;99.90;;;;;;5114631;28;20301;-69
2022/06/15 01:26:01;;;;;;;;;;;22.50;99.90;;;;;;5109235;28;19915;-67
2022/06/15 01:28:27;;;;;;;;;;;22.50;99.90;;;;;;5115330;28;19908;-67
2022/06/15 01:30:55;;;;;;;;;;;22.50;99.90;;;;;;5109297;28;20412;-67
2022/06/15 01:33:35;;;;;;;;;;;22.50;99.90;;;;;;5120867;27;20597;-67
2022/06/15 01:36:10;;;;;;;;;;;22.50;99.90;;;;;;5111157;28;19919;-67
2022/06/15 01:38:36;;;;;;;;;;;22.40;99.90;;;;;;5110986;28;19968;-67
2022/06/15 01:41:31;;;;;;;;;;;22.50;99.90;;;;;;5111246;28;19912;-67
2022/06/15 01:44:00;;;;;;;;;;;22.40;99.90;;;;;;5105887;28;19911;-67
2022/06/15 01:46:26;;;;;;;;;;;22.30;99.90;;;;;;5113420;28;19954;-67
2022/06/15 01:48:53;;;;;;;;;;;22.30;99.90;;;;;;5109824;28;19911;-68
2022/06/15 01:51:21;;;;;;;;;;;22.30;99.90;;;;;;5109030;28;19915;-68
2022/06/15 01:53:52;;;;;;;;;;;22.30;99.90;;;;;;5111213;28;19914;-67
2022/06/15 01:56:22;;;;;;;;;;;22.30;99.90;;;;;;5111491;28;19907;-68
2022/06/15 01:58:51;;;;;;;;;;;22.30;99.90;;;;;;5112249;28;20276;-68
2022/06/15 02:01:24;;;;;;;;;;;22.30;99.90;;;;;;5108704;28;19914;-68
2022/06/15 02:04:09;;;;;;;;;;;22.30;99.90;;;;;;5110572;28;20309;-68
2022/06/15 02:06:43;;;;;;;;;;;22.30;99.90;;;;;;5105658;28;20292;-67
2022/06/15 02:09:13;;;;;;;;;;;22.30;99.90;;;;;;5112119;28;19903;-68
2022/06/15 02:11:40;;;;;;;;;;;22.30;99.90;;;;;;5111863;28;19907;-67
2022/06/15 02:14:25;;;;;;;;;;;22.30;99.90;;;;;;5112017;28;20380;-68
2022/06/15 02:16:55;;;;;;;;;;;22.30;99.90;;;;;;5115808;28;19911;-67
2022/06/15 02:19:30;;;;;;;;;;;22.30;99.90;;;;;;5115124;28;19945;-67
2022/06/15 02:21:57;;;;;;;;;;;22.30;99.90;;;;;;5103709;28;19908;-67
2022/06/15 02:24:23;;;;;;;;;;;22.20;99.90;;;;;;5105344;28;19911;-67
2022/06/15 02:26:49;;;;;;;;;;;22.20;99.90;;;;;;5110820;28;19915;-73
2022/06/15 02:29:20;;;;;;;;;;;22.20;99.90;;;;;;5108363;28;20007;-72
2022/06/15 02:31:46;;;;;;;;;;;22.10;99.90;;;;;;5105996;28;19954;-74
2022/06/15 02:34:12;;;;;;;;;;;22.00;99.90;;;;;;5105993;28;20309;-74
2022/06/15 02:36:38;;;;;;;;;;;22.00;99.90;;;;;;5108342;28;20289;-74
2022/06/15 02:39:05;;;;;;;;;;;22.00;99.90;;;;;;5107369;28;19907;-73
2022/06/15 02:41:32;;;;;;;;;;;21.90;99.90;;;;;;5099808;28;19923;-70
2022/06/15 02:43:59;;;;;;;;;;;21.90;99.90;;;;;;5105045;28;19907;-72
2022/06/15 02:46:25;;;;;;;;;;;21.90;99.90;;;;;;5113316;28;19910;-73
2022/06/15 02:48:51;;;;;;;;;;;22.00;99.90;;;;;;5110479;28;19908;-71
2022/06/15 02:51:23;;;;;;;;;;;22.00;99.90;;;;;;5112786;28;19904;-73
2022/06/15 02:53:50;;;;;;;;;;;22.00;99.90;;;;;;5114899;28;19913;-72
2022/06/15 02:56:17;;;;;;;;;;;22.00;99.90;;;;;;5109446;28;20362;-73
2022/06/15 02:58:44;;;;;;;;;;;22.00;99.90;;;;;;5108126;28;19935;-74
2022/06/15 03:01:10;;;;;;;;;;;22.00;99.90;;;;;;5107137;28;19904;-72
2022/06/15 03:03:36;;;;;;;;;;;22.00;99.90;;;;;;5104797;28;19919;-73
2022/06/15 03:06:01;;;;;;;;;;;21.90;99.90;;;;;;5110229;28;19907;-74
2022/06/15 03:08:27;;;;;;;;;;;22.00;99.90;;;;;;5106423;28;20425;-74
2022/06/15 03:10:53;;;;;;;;;;;21.90;99.90;;;;;;5109780;28;19943;-72
2022/06/15 03:13:19;;;;;;;;;;;22.00;99.90;;;;;;5105508;28;19950;-74
2022/06/15 03:15:45;;;;;;;;;;;21.90;99.90;;;;;;5106521;28;19951;-74
2022/06/15 03:18:11;;;;;;;;;;;21.90;99.90;;;;;;5107660;28;19919;-73
2022/06/15 03:20:37;;;;;;;;;;;21.90;99.90;;;;;;5107928;28;19903;-72
2022/06/15 03:23:06;;;;;;;;;;;21.80;99.90;;;;;;5107127;28;20326;-74
2022/06/15 03:25:32;;;;;;;;;;;21.90;99.90;;;;;;5106689;28;19911;-74
2022/06/15 03:27:58;;;;;;;;;;;21.90;99.90;;;;;;5104184;28;19903;-72
2022/06/15 03:30:23;;;;;;;;;;;21.90;99.90;;;;;;5108125;28;19919;-73
2022/06/15 03:32:49;;;;;;;;;;;22.00;99.90;;;;;;5106988;28;19960;-73
2022/06/15 03:35:15;;;;;;;;;;;22.00;99.90;;;;;;5107857;28;19961;-73
2022/06/15 03:37:40;;;;;;;;;;;21.90;99.90;;;;;;5106038;28;19951;-74
2022/06/15 03:40:08;;;;;;;;;;;21.80;99.90;;;;;;5104383;28;20065;-73
2022/06/15 03:42:33;;;;;;;;;;;21.70;99.90;;;;;;5105094;28;20053;-74
2022/06/15 03:44:59;;;;;;;;;;;21.70;99.90;;;;;;5104974;28;19990;-73
2022/06/15 03:47:25;;;;;;;;;;;21.80;99.90;;;;;;5105192;28;19907;-72
2022/06/15 03:49:51;;;;;;;;;;;21.80;99.90;;;;;;5106482;28;19953;-74
2022/06/15 03:52:18;;;;;;;;;;;21.90;99.90;;;;;;5105404;28;19911;-74
2022/06/15 03:54:44;;;;;;;;;;;21.90;99.90;;;;;;5106870;28;19930;-75
2022/06/15 03:57:11;;;;;;;;;;;22.00;99.90;;;;;;5106012;28;19912;-73
2022/06/15 03:59:37;;;;;;;;;;;22.00;99.90;;;;;;5108722;28;20249;-73
2022/06/15 04:02:03;;;;;;;;;;;22.10;99.90;;;;;;5101352;28;19930;-72
2022/06/15 04:04:29;;;;;;;;;;;22.10;99.90;;;;;;5109973;28;20002;-74
2022/06/15 04:06:54;;;;;;;;;;;22.10;99.90;;;;;;5103763;28;19908;-74
2022/06/15 04:09:21;;;;;;;;;;;22.20;99.90;;;;;;5106275;28;19915;-75
2022/06/15 04:12:08;;;;;;;;;;;22.10;99.90;;;;;;5100929;28;19961;-72
2022/06/15 04:14:34;;;;;;;;;;;22.10;99.90;;;;;;5111519;28;20017;-73
2022/06/15 04:17:00;;;;;;;;;;;22.00;99.90;;;;;;5110505;28;20270;-73
2022/06/15 04:19:27;;;;;;;;;;;22.00;99.90;;;;;;5113171;28;20395;-73
2022/06/15 04:21:53;;;;;;;;;;;22.10;99.90;;;;;;5111239;28;20293;-72
2022/06/15 04:24:19;;;;;;;;;;;22.20;99.90;;;;;;5115191;28;19954;-73
2022/06/15 04:26:45;;;;;;;;;;;22.20;99.90;;;;;;5116709;28;19915;-73
2022/06/15 04:29:11;;;;;;;;;;;22.20;99.90;;;;;;5118380;28;20329;-73
2022/06/15 04:31:38;;;;;;;;;;;22.30;99.90;;;;;;5114783;27;19914;-74
2022/06/15 04:34:05;;;;;;;;;;;22.30;99.90;;;;;;5113707;28;19915;-74
2022/06/15 04:36:30;;;;;;;;;;;22.30;99.90;;;;;;5113418;28;19908;-74
2022/06/15 04:38:56;;;;;;;;;;;22.30;99.90;;;;;;5116021;28;19903;-72
2022/06/15 04:41:22;;;;;;;;;;;22.30;99.90;;;;;;5112720;28;20022;-72
2022/06/15 04:43:47;;;;;;;;;;;22.40;99.90;;;;;;5112259;28;19915;-72
2022/06/15 04:46:13;;;;;;;;;;;22.40;99.90;;;;;;5109268;28;19908;-71
2022/06/15 04:48:39;;;;;;;;;;;22.50;99.90;;;;;;5110235;28;20052;-73
2022/06/15 04:51:12;;;;;;;;;;;22.50;99.90;;;;;;5113665;28;19943;-73
2022/06/15 04:53:37;;;;;;;;;;;22.60;99.90;;;;;;5116965;28;19954;-73
2022/06/15 04:56:03;;;;;;;;;;;22.60;99.90;;;;;;5112047;28;20262;-73
2022/06/15 04:58:29;;;;;;;;;;;22.60;99.90;;;;;;5108872;28;19962;-74
2022/06/15 05:00:55;;;;;;;;;;;22.60;99.90;;;;;;5111415;28;19914;-73
2022/06/15 05:03:20;;;;;;;;;;;22.70;99.90;;;;;;5112596;28;20594;-74
2022/06/15 05:05:46;;;;;;;;;;;22.70;99.90;;;;;;5113340;28;19907;-74
2022/06/15 05:08:11;;;;;;;;;;;22.70;99.90;;;;;;5122462;28;19911;-74
2022/06/15 05:10:37;;;;;;;;;;;22.80;99.90;;;;;;5113472;28;19922;-71
2022/06/15 05:13:03;;;;;;;;;;;22.90;99.90;;;;;;5117438;28;19923;-73
2022/06/15 05:15:29;;;;;;;;;;;22.90;99.90;;;;;;5121700;28;19907;-74
2022/06/15 05:17:55;;;;;;;;;;;23.00;99.90;;;;;;5112574;28;19975;-73
2022/06/15 05:20:21;;;;;;;;;;;23.10;99.90;;;;;;5115581;28;19915;-73
2022/06/15 05:22:53;;;;;;;;;;;23.10;99.90;;;;;;5117121;28;19903;-74
2022/06/15 05:25:20;;;;;;;;;;;23.20;99.90;;;;;;5118563;28;19908;-73
2022/06/15 05:27:46;;;;;;;;;;;23.30;99.90;;;;;;5115840;28;20031;-74
2022/06/15 05:30:12;;;;;;;;;;;23.40;99.90;;;;;;5114588;28;19912;-74
2022/06/15 05:32:38;;;;;;;;;;;23.30;99.90;;;;;;5115745;28;19952;-74
2022/06/15 05:35:04;;;;;;;;;;;23.30;99.90;;;;;;5119134;28;20249;-73
2022/06/15 05:37:30;;;;;;;;;;;23.20;99.90;;;;;;5118118;28;19911;-74
2022/06/15 05:39:56;;;;;;;;;;;23.40;99.90;;;;;;5114977;28;19907;-73
2022/06/15 05:42:22;;;;;;;;;;;23.40;99.90;;;;;;5115003;28;19979;-73
2022/06/15 05:44:53;;;;;;;;;;;23.40;99.90;;;;;;5112127;28;19911;-75
2022/06/15 05:47:19;;;;;;;;;;;23.40;99.90;;;;;;5116939;28;19908;-73
2022/06/15 05:49:45;;;;;;;;;;;23.50;99.90;;;;;;5118632;28;20308;-74
2022/06/15 05:52:11;;;;;;;;;;;23.60;99.90;;;;;;5121707;28;19928;-75
2022/06/15 05:54:37;;;;;;;;;;;23.60;99.90;;;;;;5117617;28;19925;-75
2022/06/15 05:57:11;;;;;;;;;;;23.70;99.90;;;;;;5112678;28;20420;-73
2022/06/15 05:59:36;;;;;;;;;;;23.80;99.90;;;;;;5117187;28;19971;-74
2022/06/15 06:02:02;;;;;;;;;;;23.80;99.90;;;;;;5113788;28;19954;-74
2022/06/15 06:04:28;;;;;;;;;;;23.90;99.90;;;;;;5115138;28;20286;-76
2022/06/15 06:06:54;;;;;;;;;;;24.00;99.90;;;;;;5114531;28;19912;-72
2022/06/15 06:09:20;;;;;;;;;;;24.10;99.90;;;;;;5117061;28;20384;-73
2022/06/15 06:11:45;;;;;;;;;;;24.10;99.90;;;;;;5112900;28;20049;-73
2022/06/15 06:14:11;;;;;;;;;;;24.20;99.90;;;;;;5115478;28;19958;-75
2022/06/15 06:16:37;;;;;;;;;;;24.20;99.90;;;;;;5110270;28;19998;-74
2022/06/15 06:19:03;;;;;;;;;;;24.30;99.90;;;;;;5106362;28;19976;-75
2022/06/15 06:21:28;;;;;;;;;;;24.40;99.90;;;;;;5104264;28;19953;-71
2022/06/15 06:23:54;;;;;;;;;;;24.60;99.90;;;;;;5104770;28;20001;-72
2022/06/15 06:26:22;;;;;;;;;;;24.80;99.90;;;;;;5101856;28;19931;-75
2022/06/15 06:28:56;;;;;;;;;;;24.90;99.90;;;;;;5111829;28;19911;-74
2022/06/15 06:31:24;;;;;;;;;;;24.90;99.90;;;;;;5108453;28;19908;-64
2022/06/15 06:33:50;;;;;;;;;;;25.00;99.90;;;;;;5105200;28;19912;-67
2022/06/15 06:36:18;;;;;;;;;;;25.10;99.90;;;;;;5107723;28;20266;-66
2022/06/15 06:38:44;;;;;;;;;;;25.10;99.90;;;;;;5105705;28;20369;-66
2022/06/15 06:41:10;;;;;;;;;;;25.20;99.90;;;;;;5110938;28;19911;-65
2022/06/15 06:43:37;;;;;;;;;;;25.30;99.90;;;;;;5108957;28;19911;-66
2022/06/15 06:46:04;;;;;;;;;;;25.40;99.90;;;;;;5108539;28;19912;-66
2022/06/15 06:48:30;;;;;;;;;;;25.50;99.90;;;;;;5110783;28;19911;-67
2022/06/15 06:50:55;;;;;;;;;;;25.50;99.90;;;;;;5108990;28;19914;-67
2022/06/15 06:53:21;;;;;;;;;;;25.60;99.90;;;;;;5106748;28;20556;-67
2022/06/15 06:55:47;;;;;;;;;;;25.70;99.90;;;;;;5104331;28;19964;-67
2022/06/15 06:58:12;;;;;;;;;;;25.80;99.90;;;;;;5106712;28;19916;-67
2022/06/15 07:00:38;;;;;;;;;;;26.00;99.90;;;;;;5110660;28;20003;-67
2022/06/15 07:03:05;;;;;;;;;;;26.30;99.90;;;;;;5108625;28;19907;-67
2022/06/15 07:05:35;;;;;;;;;;;26.60;99.90;;;;;;5104676;28;19911;-66
2022/06/15 07:08:01;;;;;;;;;;;26.70;99.90;;;;;;5110504;28;19903;-67
2022/06/15 07:10:27;;;;;;;;;;;26.80;99.90;;;;;;5108133;28;19976;-66
2022/06/15 07:12:53;;;;;;;;;;;27.20;99.90;;;;;;5108160;28;19931;-66
2022/06/15 07:15:18;;;;;;;;;;;27.40;99.90;;;;;;5107601;28;19962;-66
2022/06/15 07:17:44;;;;;;;;;;;27.30;99.90;;;;;;5107980;28;19966;-65
2022/06/15 07:20:10;;;;;;;;;;;27.40;99.90;;;;;;5097487;28;19908;-66
2022/06/15 07:22:37;;;;;;;;;;;27.20;99.90;;;;;;5103038;28;20374;-65
2022/06/15 07:25:03;;;;;;;;;;;27.10;99.90;;;;;;5105016;28;19987;-65
2022/06/15 07:27:28;;;;;;;;;;;26.90;99.90;;;;;;5109282;28;20010;-65
2022/06/15 07:29:55;;;;;;;;;;;26.60;99.90;;;;;;5109313;28;19994;-64
2022/06/15 07:32:21;;;;;;;;;;;26.30;99.90;;;;;;5108350;28;19926;-66
2022/06/15 07:34:47;;;;;;;;;;;26.30;99.90;;;;;;5109492;28;19907;-65
2022/06/15 07:37:13;;;;;;;;;;;26.20;99.90;;;;;;5109238;28;20384;-64
2022/06/15 07:39:38;;;;;;;;;;;26.10;99.90;;;;;;5105949;28;19908;-66
2022/06/15 07:42:05;;;;;;;;;;;26.00;99.90;;;;;;5099185;28;19918;-66
2022/06/15 07:44:31;;;;;;;;;;;26.10;99.90;;;;;;5098872;28;19908;-65
2022/06/15 07:49:57;;;;;;;;;;;26.50;99.90;;;;;;5104716;28;19914;-64
2022/06/15 07:52:24;;;;;;;;;;;26.50;99.90;;;;;;5100193;28;19911;-65
2022/06/15 07:54:50;;;;;;;;;;;26.30;99.90;;;;;;5110409;28;19947;-63
2022/06/15 07:57:16;;;;;;;;;;;26.20;99.90;;;;;;5113029;28;20012;-64
2022/06/15 07:59:41;;;;;;;;;;;25.90;99.90;;;;;;5110955;28;19911;-64
2022/06/15 08:02:08;;;;;;;;;;;25.70;99.90;;;;;;5110406;28;19903;-65
2022/06/15 08:04:33;;;;;;;;;;;25.60;99.90;;;;;;5107528;28;19914;-63
2022/06/15 08:06:59;;;;;;;;;;;25.50;99.90;;;;;;5108309;28;20289;-65
2022/06/15 08:09:25;;;;;;;;;;;25.40;99.90;;;;;;5112625;28;19998;-64
2022/06/15 08:14:36;;;;;;;;;;;25.10;99.90;;;;;;5111344;28;19927;-60
2022/06/15 08:17:04;;;;;;;;;;;25.00;99.90;;;;;;5098279;28;20068;-61
2022/06/15 08:19:31;;;;;;;;;;;25.10;99.90;;;;;;5111385;28;20297;-68
2022/06/15 08:21:57;;;;;;;;;;;25.00;99.90;;;;;;5109350;28;19908;-65
2022/06/15 08:24:24;;;;;;;;;;;25.00;99.90;;;;;;5100054;28;19960;-67
2022/06/15 08:26:49;;;;;;;;;;;24.90;99.90;;;;;;5107428;28;19907;-63
2022/06/15 08:29:16;;;;;;;;;;;25.00;99.90;;;;;;5111091;28;20002;-64
2022/06/15 08:31:42;;;;;;;;;;;24.90;99.90;;;;;;5111590;28;19912;-62
2022/06/15 08:34:08;;;;;;;;;;;24.90;99.90;;;;;;5110030;28;20397;-63
2022/06/15 08:36:34;;;;;;;;;;;25.20;99.90;;;;;;5101949;28;20392;-64
2022/06/15 08:39:00;;;;;;;;;;;25.50;99.90;;;;;;5112375;27;19950;-63
2022/06/15 08:41:45;;;;;;;;;;;25.80;99.90;;;;;;5113375;28;19904;-63
2022/06/15 08:44:13;;;;;;;;;;;26.20;99.90;;;;;;5114502;28;19916;-64
2022/06/15 08:46:39;;;;;;;;;;;26.30;99.90;;;;;;5113597;28;19907;-63
2022/06/15 08:49:07;;;;;;;;;;;26.20;99.90;;;;;;5114384;28;19931;-63
2022/06/15 08:51:36;;;;;;;;;;;26.10;99.90;;;;;;5113618;28;19904;-62
2022/06/15 08:54:04;;;;;;;;;;;26.00;99.90;;;;;;5110853;28;20332;-62
2022/06/15 08:56:41;;;;;;;;;;;26.00;99.90;;;;;;5112094;28;19990;-63
2022/06/15 08:59:14;;;;;;;;;;;25.80;99.90;;;;;;5111472;28;19927;-62
2022/06/15 09:01:45;;;;;;;;;;;25.70;99.90;;;;;;5112052;28;20250;-62
2022/06/15 09:04:10;;;;;;;;;;;25.70;99.90;;;;;;5112364;28;19915;-63
2022/06/15 09:06:55;;;;;;;;;;;25.70;99.90;;;;;;5109802;28;19923;-63
2022/06/15 09:09:20;;;;;;;;;;;25.70;99.90;;;;;;5108821;28;20007;-63
2022/06/15 09:11:46;;;;;;;;;;;25.70;99.90;;;;;;5113397;28;20033;-62
2022/06/15 09:14:11;;;;;;;;;;;25.60;99.90;;;;;;5112065;28;19907;-62
2022/06/15 09:16:43;;;;;;;;;;;25.70;99.90;;;;;;5108738;28;20343;-63
2022/06/15 09:19:18;;;;;;;;;;;25.70;99.90;;;;;;5110926;28;19916;-62
2022/06/15 09:22:05;;;;;;;;;;;25.80;99.90;;;;;;5112089;28;20010;-63
2022/06/15 09:24:35;;;;;;;;;;;25.90;99.90;;;;;;5106305;28;19908;-62
2022/06/15 09:27:05;;;;;;;;;;;26.00;99.90;;;;;;5110460;28;19908;-64
2022/06/15 09:29:44;;;;;;;;;;;25.90;99.90;;;;;;5111416;28;19925;-61
2022/06/15 09:32:14;;;;;;;;;;;25.90;99.90;;;;;;5111586;28;19907;-61
2022/06/15 09:34:42;;;;;;;;;;;25.90;99.90;;;;;;5111673;28;20369;-63
2022/06/15 09:37:18;;;;;;;;;;;25.90;99.90;;;;;;5104907;28;19911;-63
2022/06/15 09:39:44;;;;;;;;;;;25.80;99.90;;;;;;5104173;28;19908;-62
2022/06/15 09:42:09;;;;;;;;;;;25.80;99.90;;;;;;5111167;28;20357;-62
2022/06/15 09:45:13;;;;;;;;;;;25.70;99.90;;;;;;5111398;28;19911;-63
2022/06/15 09:48:17;;;;;;;;;;;25.80;99.90;;;;;;5038256;28;19935;-63
2022/06/15 09:50:47;;;;;;;;;;;25.80;99.90;;;;;;4989853;28;20472;-63
2022/06/15 09:53:20;;;;;;;;;;;25.80;99.90;;;;;;5032286;28;19932;-63
2022/06/15 09:55:48;;;;;;;;;;;26.10;99.90;;;;;;5069656;28;19911;-64
2022/06/15 09:58:16;;;;;;;;;;;26.10;99.90;;;;;;5105523;28;19950;-63
2022/06/15 10:00:43;;;;;;;;;;;26.00;99.90;;;;;;5110500;28;19907;-64
2022/06/15 10:03:19;;;;;;;;;;;26.10;99.90;;;;;;5111491;28;19903;-63
2022/06/15 10:05:46;;;;;;;;;;;26.10;99.90;;;;;;5106089;28;19912;-63
2022/06/15 10:08:13;;;;;;;;;;;26.20;99.90;;;;;;5109804;28;19908;-63
2022/06/15 10:10:50;;;;;;;;;;;26.30;99.90;;;;;;5110433;28;19903;-64
2022/06/15 10:13:19;;;;;;;;;;;26.30;99.90;;;;;;5105727;28;19924;-63
2022/06/15 10:15:55;;;;;;;;;;;26.40;99.90;;;;;;5100342;28;20302;-62
2022/06/15 10:18:24;;;;;;;;;;;26.30;99.90;;;;;;5104395;28;19916;-63
2022/06/15 10:21:01;;;;;;;;;;;26.30;99.90;;;;;;5101826;28;19912;-63
2022/06/15 10:23:33;;;;;;;;;;;26.30;99.90;;;;;;5108148;27;19998;-62
2022/06/15 10:25:58;;;;;;;;;;;26.10;99.90;;;;;;5103683;28;19915;-63
2022/06/15 10:28:26;;;;;;;;;;;26.00;99.90;;;;;;5110817;28;19908;-63
2022/06/15 10:30:57;;;;;;;;;;;25.90;99.90;;;;;;5110827;28;19958;-63
2022/06/15 10:33:22;;;;;;;;;;;25.90;99.90;;;;;;5108132;28;19916;-63
2022/06/15 10:35:58;;;;;;;;;;;25.90;99.90;;;;;;5101983;28;19915;-63
2022/06/15 10:38:24;;;;;;;;;;;25.50;99.90;;;;;;5104834;28;19923;-62
2022/06/15 10:43:44;;;;;;;;;;;25.30;99.90;;;;;;5110412;28;19957;-66
2022/06/15 10:46:10;;;;;;;;;;;25.50;99.90;;;;;;5103115;28;19998;-66
2022/06/15 10:48:54;;;;;;;;;;;25.60;99.90;;;;;;5105209;28;19976;-65
2022/06/15 10:51:35;;;;;;;;;;;25.70;99.90;;;;;;5109170;28;19918;-68
2022/06/15 10:54:19;;;;;;;;;;;25.60;99.90;;;;;;5107794;28;19912;-67
2022/06/15 11:02:14;;;;;;;;;;;26.00;99.90;;;;;;5103258;28;19965;-64
2022/06/15 11:04:46;;;;;;;;;;;26.20;99.90;;;;;;5108274;28;19939;-66
2022/06/15 11:07:25;;;;;;;;;;;26.20;99.90;;;;;;5101779;28;19911;-66
2022/06/15 11:09:50;;;;;;;;;;;26.20;99.90;;;;;;5110362;28;19939;-67
2022/06/15 11:12:30;;;;;;;;;;;26.00;99.90;;;;;;5110651;28;19904;-66
2022/06/15 11:14:58;;;;;;;;;;;25.80;99.90;;;;;;5105149;28;20309;-65
2022/06/15 11:20:26;;;;;;;;;;;25.70;99.90;;;;;;5107146;28;20331;-66
2022/06/15 11:22:54;;;;;;;;;;;25.90;99.90;;;;;;5116453;28;20262;-66
2022/06/15 11:25:22;;;;;;;;;;;25.60;99.90;;;;;;5106902;28;19910;-65
2022/06/15 11:28:00;;;;;;;;;;;25.60;99.90;;;;;;5107209;28;19914;-71
2022/06/15 11:30:27;;;;;;;;;;;25.60;99.90;;;;;;5110038;28;19957;-71
2022/06/15 11:33:25;;;;;;;;;;;25.60;99.90;;;;;;5109209;28;19916;-71
2022/06/15 11:36:01;;;;;;;;;;;25.80;99.90;;;;;;5089743;27;19907;-71
2022/06/15 11:38:29;;;;;;;;;;;26.00;99.90;;;;;;5110438;28;19952;-71
2022/06/15 11:40:57;;;;;;;;;;;26.00;99.90;;;;;;5113422;28;20318;-71
2022/06/15 11:43:22;;;;;;;;;;;26.10;99.90;;;;;;5115203;28;20342;-72
2022/06/15 11:45:54;;;;;;;;;;;26.30;99.90;;;;;;5113932;28;19995;-72
2022/06/15 11:48:19;;;;;;;;;;;26.30;99.90;;;;;;5113292;28;19904;-71
2022/06/15 11:50:52;;;;;;;;;;;26.50;99.90;;;;;;5113412;28;19969;-73
2022/06/15 11:53:35;;;;;;;;;;;26.50;99.90;;;;;;5114495;28;20362;-72
2022/06/15 11:56:07;;;;;;;;;;;26.40;99.90;;;;;;5098586;28;19903;-71
2022/06/15 11:58:38;;;;;;;;;;;26.40;99.90;;;;;;5115350;28;19942;-70
2022/06/15 12:01:14;;;;;;;;;;;26.30;99.90;;;;;;5113106;28;19910;-70
2022/06/15 12:03:48;;;;;;;;;;;26.30;99.90;;;;;;5113316;28;20307;-72
2022/06/15 12:06:34;;;;;;;;;;;26.20;99.90;;;;;;5114821;28;19949;-70
2022/06/15 12:09:04;;;;;;;;;;;26.20;99.90;;;;;;5112440;28;20370;-71
2022/06/15 12:14:14;;;;;;;;;;;26.10;99.90;;;;;;5112894;28;20029;-70
2022/06/15 12:16:48;;;;;;;;;;;26.10;99.90;;;;;;5114761;28;19904;-71
2022/06/15 12:19:29;;;;;;;;;;;26.10;99.90;;;;;;5113057;28;19935;-70
2022/06/15 12:21:58;;;;;;;;;;;26.10;99.90;;;;;;5113549;28;19904;-72
2022/06/15 12:24:32;;;;;;;;;;;26.20;99.90;;;;;;5112568;28;19937;-70
2022/06/15 12:27:10;;;;;;;;;;;26.30;99.90;;;;;;5111605;28;19926;-71
2022/06/15 12:29:40;;;;;;;;;;;26.30;99.90;;;;;;5113881;28;19908;-70
2022/06/15 12:34:51;;;;;;;;;;;26.10;99.90;;;;;;5113764;28;20006;-71
2022/06/15 12:37:19;;;;;;;;;;;26.30;99.90;;;;;;5114022;28;19908;-69
2022/06/15 12:39:45;;;;;;;;;;;26.40;99.90;;;;;;5112048;28;20298;-70
2022/06/15 12:42:14;;;;;;;;;;;26.50;99.90;;;;;;5107936;28;19930;-70
2022/06/15 12:44:52;;;;;;;;;;;26.70;99.90;;;;;;5112622;28;20545;-70
2022/06/15 12:47:18;;;;;;;;;;;26.70;99.90;;;;;;5114017;28;20243;-70
2022/06/15 12:50:06;;;;;;;;;;;26.80;99.90;;;;;;5112530;28;19930;-69
2022/06/15 12:52:36;;;;;;;;;;;26.70;99.90;;;;;;5113114;28;19991;-69
2022/06/15 12:55:20;;;;;;;;;;;26.60;99.90;;;;;;5110937;28;19911;-69
2022/06/15 12:57:55;;;;;;;;;;;26.60;99.90;;;;;;5115078;28;19942;-69
2022/06/15 13:00:44;;;;;;;;;;;26.60;99.90;;;;;;5113494;27;19904;-69
2022/06/15 13:03:09;;;;;;;;;;;26.50;99.90;;;;;;5115319;28;19911;-70
2022/06/15 13:05:38;;;;;;;;;;;26.60;99.90;;;;;;5118217;28;19904;-68
2022/06/15 13:08:14;;;;;;;;;;;26.60;99.90;;;;;;5115783;28;19919;-69
2022/06/15 13:10:55;;;;;;;;;;;26.70;99.90;;;;;;5112663;28;19915;-69
2022/06/15 13:13:23;;;;;;;;;;;26.80;99.90;;;;;;5113964;28;20344;-69
2022/06/15 13:15:53;;;;;;;;;;;26.70;99.90;;;;;;5113467;28;19903;-71
2022/06/15 13:18:36;;;;;;;;;;;26.70;99.90;;;;;;5113231;28;19908;-70
2022/06/15 13:21:03;;;;;;;;;;;26.70;99.90;;;;;;5110605;28;19934;-70
2022/06/15 13:23:32;;;;;;;;;;;26.60;99.90;;;;;;5113237;28;19911;-70
2022/06/15 13:26:00;;;;;;;;;;;26.60;99.90;;;;;;5109885;28;19907;-70
2022/06/15 13:28:31;;;;;;;;;;;26.60;99.90;;;;;;5106969;28;20244;-70
2022/06/15 13:30:58;;;;;;;;;;;26.80;99.90;;;;;;5102467;28;19929;-70
2022/06/15 13:33:42;;;;;;;;;;;26.80;99.90;;;;;;5112900;28;19951;-70
2022/06/15 13:36:11;;;;;;;;;;;26.80;99.90;;;;;;5111651;28;19903;-70
2022/06/15 13:38:37;;;;;;;;;;;26.70;99.90;;;;;;5112596;28;20570;-69
2022/06/15 13:41:09;;;;;;;;;;;26.70;99.90;;;;;;5111582;28;20002;-69
2022/06/15 13:43:43;;;;;;;;;;;26.60;99.90;;;;;;5113212;28;19911;-70
2022/06/15 13:46:24;;;;;;;;;;;26.60;99.90;;;;;;5112449;28;19907;-70
2022/06/15 13:48:52;;;;;;;;;;;26.50;99.90;;;;;;5112338;28;19904;-70
2022/06/15 13:51:27;;;;;;;;;;;26.60;99.90;;;;;;5111162;28;20250;-70
2022/06/15 13:53:57;;;;;;;;;;;26.70;99.90;;;;;;5114129;28;19908;-69
2022/06/15 13:56:23;;;;;;;;;;;26.70;99.90;;;;;;5115792;28;19938;-70
2022/06/15 13:59:02;;;;;;;;;;;26.70;99.90;;;;;;5111361;28;19911;-70
2022/06/15 14:01:30;;;;;;;;;;;26.60;99.90;;;;;;5114648;28;20442;-69
2022/06/15 14:04:09;;;;;;;;;;;26.80;99.90;;;;;;5115045;28;19904;-71
2022/06/15 14:06:53;;;;;;;;;;;26.60;99.90;;;;;;5115234;28;20330;-70
2022/06/15 14:09:31;;;;;;;;;;;26.50;99.90;;;;;;5112992;28;19904;-71
2022/06/15 14:12:18;;;;;;;;;;;26.40;99.90;;;;;;5112350;28;19999;-70
2022/06/15 14:14:43;;;;;;;;;;;26.50;99.90;;;;;;5113811;28;19948;-70
2022/06/15 14:17:18;;;;;;;;;;;26.60;99.90;;;;;;5113399;28;19908;-70
2022/06/15 14:19:46;;;;;;;;;;;26.50;99.90;;;;;;5112966;28;19938;-71
2022/06/15 14:22:14;;;;;;;;;;;26.50;99.90;;;;;;5111123;28;20351;-68
2022/06/15 14:24:40;;;;;;;;;;;26.20;99.90;;;;;;5111986;28;19926;-70
2022/06/15 14:27:26;;;;;;;;;;;26.10;99.90;;;;;;5108673;28;19959;-70
2022/06/15 14:29:51;;;;;;;;;;;26.20;99.90;;;;;;5111795;28;19987;-70
2022/06/15 14:32:23;;;;;;;;;;;26.30;99.90;;;;;;5107011;28;19954;-70
2022/06/15 14:34:49;;;;;;;;;;;26.60;99.90;;;;;;5108344;28;19959;-69
2022/06/15 14:37:18;;;;;;;;;;;26.70;99.90;;;;;;5111662;28;20301;-70
2022/06/15 14:39:47;;;;;;;;;;;26.70;99.90;;;;;;5109987;28;19904;-71
2022/06/15 14:42:17;;;;;;;;;;;26.40;99.90;;;;;;5106777;28;19943;-70
2022/06/15 14:44:42;;;;;;;;;;;26.40;99.90;;;;;;5109832;28;20350;-70
2022/06/15 14:47:15;;;;;;;;;;;26.40;99.90;;;;;;5111199;28;19929;-69
2022/06/15 14:49:46;;;;;;;;;;;26.40;99.90;;;;;;5109890;28;19904;-69
2022/06/15 14:52:18;;;;;;;;;;;26.40;99.90;;;;;;5109246;28;20020;-70